Time;durP1;ratioP1;P1;durP2;ratioP2;P2;SDS_P1;SDS_P2;PMS_P1;PMS_P2;Temp;Humidity;BMP_temperature;BMP_pressure;BME280_temperature;BME280_humidity;BME280_pressure;Samples;Min_cycle;Max_cycle;Signal;HPM_P1;HPM_P2
2023/12/20 00:01:19;;;;;;;1.60;1.50;;;5.60;1.00;;;;;;4994802;28;21045;-77
2023/12/20 00:03:48;;;;;;;1.47;1.30;;;;;;;;;;4991472;28;20448;-76
2023/12/20 00:06:16;;;;;;;2.60;2.03;;;5.70;1.00;;;;;;4995020;28;21018;-76
2023/12/20 00:08:44;;;;;;;1.47;1.37;;;5.70;1.00;;;;;;4996749;28;20862;-77
2023/12/20 00:11:12;;;;;;;4.63;3.40;;;5.70;1.00;;;;;;4997459;28;20441;-76
2023/12/20 00:13:41;;;;;;;0.83;0.30;;;;;;;;;;4996138;28;20480;-76
2023/12/20 00:16:09;;;;;;;1.00;0.67;;;;;;;;;;4996267;28;20455;-75
2023/12/20 00:18:37;;;;;;;0.60;0.33;;;5.70;1.00;;;;;;4998210;28;20508;-76
2023/12/20 00:21:06;;;;;;;0.50;0.30;;;5.80;1.00;;;;;;4996929;28;20489;-75
2023/12/20 00:23:34;;;;;;;1.43;1.33;;;5.80;1.00;;;;;;4994583;28;20472;-76
2023/12/20 00:26:02;;;;;;;0.60;0.20;;;5.80;1.00;;;;;;4993761;28;20444;-76
2023/12/20 00:28:30;;;;;;;0.50;0.17;;;5.80;1.00;;;;;;4994050;28;20440;-77
2023/12/20 00:30:57;;;;;;;0.50;0.20;;;5.90;1.00;;;;;;4992976;28;20826;-75
2023/12/20 00:33:25;;;;;;;2.90;0.57;;;5.90;1.00;;;;;;4986083;28;20548;-75
2023/12/20 00:35:54;;;;;;;1.50;1.13;;;6.00;1.00;;;;;;4993590;28;20955;-76
2023/12/20 00:38:23;;;;;;;3.47;1.80;;;5.90;1.00;;;;;;4993793;28;20464;-77
2023/12/20 00:40:50;;;;;;;0.87;0.87;;;3.20;1.00;;;;;;4992273;28;20492;-76
2023/12/20 00:43:18;;;;;;;2.10;2.00;;;5.80;1.00;;;;;;4993590;28;20809;-76
2023/12/20 00:45:46;;;;;;;1.47;1.10;;;5.80;1.00;;;;;;4993093;28;20492;-77
2023/12/20 00:48:14;;;;;;;0.90;0.67;;;5.90;1.00;;;;;;4994105;28;20467;-75
2023/12/20 00:50:42;;;;;;;1.53;1.07;;;5.90;1.00;;;;;;4996746;28;20444;-74
2023/12/20 00:53:11;;;;;;;1.00;0.60;;;;;;;;;;4989978;28;20448;-75
2023/12/20 00:55:40;;;;;;;1.20;0.67;;;;;;;;;;4997756;28;20525;-77
2023/12/20 00:58:08;;;;;;;1.67;0.90;;;;;;;;;;4996558;28;20498;-76
2023/12/20 01:00:36;;;;;;;2.80;1.13;;;5.70;1.00;;;;;;4997424;28;20447;-76
2023/12/20 01:03:05;;;;;;;1.20;0.90;;;5.70;1.00;;;;;;4997242;28;20449;-77
2023/12/20 01:05:33;;;;;;;1.07;0.60;;;5.70;1.00;;;;;;4997333;28;20451;-77
2023/12/20 01:08:02;;;;;;;1.90;1.40;;;5.70;1.00;;;;;;4996690;28;20460;-77
2023/12/20 01:10:30;;;;;;;1.00;0.73;;;5.70;1.00;;;;;;4997072;28;20448;-76
2023/12/20 01:12:59;;;;;;;0.60;0.40;;;5.80;1.00;;;;;;4996734;28;20444;-76
2023/12/20 01:15:27;;;;;;;1.17;0.90;;;5.80;1.00;;;;;;4997531;28;20791;-76
2023/12/20 01:17:56;;;;;;;0.83;0.60;;;5.70;1.00;;;;;;4995911;28;20571;-75
2023/12/20 01:20:25;;;;;;;1.10;0.60;;;5.70;1.00;;;;;;4997080;28;20543;-77
2023/12/20 01:22:53;;;;;;;0.50;0.20;;;5.70;1.00;;;;;;4997085;28;20562;-75
2023/12/20 01:25:21;;;;;;;0.70;0.70;;;5.70;1.00;;;;;;4996058;28;20472;-75
2023/12/20 01:27:49;;;;;;;1.27;0.97;;;5.70;1.00;;;;;;4996376;28;20488;-77
2023/12/20 01:30:18;;;;;;;0.77;0.70;;;5.70;1.00;;;;;;4991889;28;20460;-77
2023/12/20 01:32:46;;;;;;;0.50;0.20;;;5.70;1.00;;;;;;4991908;28;20452;-75
2023/12/20 01:35:14;;;;;;;1.87;1.63;;;5.80;1.00;;;;;;4995486;28;20468;-76
2023/12/20 01:37:42;;;;;;;1.23;1.13;;;5.80;1.00;;;;;;4993798;28;20461;-76
2023/12/20 01:40:11;;;;;;;0.50;0.10;;;;;;;;;;4994893;28;20472;-76
2023/12/20 01:42:39;;;;;;;0.83;0.70;;;5.80;1.00;;;;;;4992364;28;20488;-75
2023/12/20 01:45:08;;;;;;;3.27;1.07;;;5.70;1.00;;;;;;4991841;28;20444;-75
2023/12/20 01:47:37;;;;;;;1.00;0.33;;;5.70;1.00;;;;;;4993870;28;20502;-76
2023/12/20 01:50:07;;;;;;;2.00;0.87;;;5.70;1.00;;;;;;4993730;28;20955;-77
2023/12/20 01:52:36;;;;;;;1.17;0.73;;;5.70;1.00;;;;;;4994581;28;20433;-77
2023/12/20 01:55:12;;;;;;;0.70;0.43;;;5.70;1.00;;;;;;4993409;28;20974;-74
2023/12/20 01:57:41;;;;;;;2.00;1.60;;;5.70;1.00;;;;;;4991508;28;20492;-75
2023/12/20 02:00:12;;;;;;;3.53;1.63;;;5.60;1.00;;;;;;4992029;28;20436;-76
2023/12/20 02:02:42;;;;;;;5.10;2.60;;;5.60;1.00;;;;;;4994542;28;20515;-76
2023/12/20 02:05:10;;;;;;;0.70;0.67;;;5.60;1.00;;;;;;4994794;28;20444;-76
2023/12/20 02:07:38;;;;;;;1.37;0.60;;;5.60;1.00;;;;;;4994707;28;20460;-75
2023/12/20 02:10:06;;;;;;;1.57;1.27;;;5.60;1.00;;;;;;4988839;28;20456;-75
2023/12/20 02:12:34;;;;;;;1.40;1.33;;;5.60;1.00;;;;;;4994480;28;20498;-75
2023/12/20 02:15:02;;;;;;;1.27;1.03;;;5.60;1.00;;;;;;4994429;28;20511;-76
2023/12/20 02:17:32;;;;;;;0.70;0.60;;;5.60;1.00;;;;;;4995757;28;20475;-75
2023/12/20 02:20:01;;;;;;;0.50;0.10;;;5.50;1.00;;;;;;4995619;28;20448;-76
2023/12/20 02:22:31;;;;;;;2.10;1.13;;;5.60;1.00;;;;;;4995088;28;20502;-75
2023/12/20 02:24:59;;;;;;;2.13;2.00;;;5.50;1.00;;;;;;4995432;28;20448;-74
2023/12/20 02:27:27;;;;;;;1.53;0.87;;;5.60;1.00;;;;;;4996505;28;20541;-74
2023/12/20 02:29:54;;;;;;;1.37;0.93;;;5.60;1.00;;;;;;4995750;28;20521;-74
2023/12/20 02:32:25;;;;;;;0.50;0.20;;;5.60;1.00;;;;;;5002356;28;20513;-74
2023/12/20 02:34:55;;;;;;;1.53;1.17;;;5.50;1.00;;;;;;4999669;28;20476;-75
2023/12/20 02:37:23;;;;;;;0.50;0.20;;;5.60;1.00;;;;;;4996052;28;20500;-75
2023/12/20 02:39:52;;;;;;;0.50;0.10;;;5.60;1.00;;;;;;4995464;28;20447;-75
2023/12/20 02:42:20;;;;;;;0.93;0.90;;;5.70;1.00;;;;;;4990151;28;20508;-75
2023/12/20 02:44:48;;;;;;;0.50;0.10;;;5.70;1.00;;;;;;4989613;28;20449;-75
2023/12/20 02:47:15;;;;;;;1.10;0.77;;;5.60;1.00;;;;;;4984213;28;20561;-75
2023/12/20 02:49:43;;;;;;;1.83;0.40;;;5.70;1.00;;;;;;4989578;28;20893;-75
2023/12/20 02:52:11;;;;;;;0.60;0.60;;;5.80;1.00;;;;;;4987001;28;20445;-73
2023/12/20 02:54:39;;;;;;;0.80;0.53;;;;;;;;;;4995575;28;20452;-75
2023/12/20 02:57:09;;;;;;;0.60;0.40;;;5.80;1.00;;;;;;4992972;28;20472;-76
2023/12/20 02:59:36;;;;;;;0.50;0.10;;;5.90;1.00;;;;;;4992540;28;20449;-75
2023/12/20 03:02:04;;;;;;;0.50;0.20;;;5.90;1.00;;;;;;4988551;28;20909;-76
2023/12/20 03:04:32;;;;;;;0.60;0.43;;;5.90;1.00;;;;;;4991912;28;20769;-74
2023/12/20 03:07:00;;;;;;;0.50;0.10;;;5.90;1.00;;;;;;4992469;28;20595;-75
2023/12/20 03:09:28;;;;;;;0.50;0.20;;;5.90;1.00;;;;;;4995502;28;20459;-75
2023/12/20 03:12:05;;;;;;;0.83;0.50;;;5.90;1.00;;;;;;4986968;28;20819;-74
2023/12/20 03:14:35;;;;;;;0.50;0.10;;;5.90;1.00;;;;;;4995690;28;20444;-76
2023/12/20 03:17:03;;;;;;;2.20;1.47;;;5.90;1.00;;;;;;4994343;28;20469;-75
2023/12/20 03:19:30;;;;;;;0.50;0.10;;;5.90;1.00;;;;;;4990216;28;20545;-76
2023/12/20 03:22:00;;;;;;;1.53;1.43;;;6.00;1.00;;;;;;4983546;28;20455;-76
2023/12/20 03:24:28;;;;;;;0.50;0.10;;;6.00;1.00;;;;;;4975037;28;20476;-76
2023/12/20 03:26:56;;;;;;;1.47;0.60;;;5.90;1.00;;;;;;4994247;28;20468;-75
2023/12/20 03:29:24;;;;;;;2.20;0.60;;;5.90;1.00;;;;;;4986618;28;20927;-76
2023/12/20 03:31:53;;;;;;;2.10;0.50;;;6.00;1.00;;;;;;4979469;28;20449;-75
2023/12/20 03:34:21;;;;;;;1.17;1.17;;;5.90;1.00;;;;;;4986733;28;20532;-75
2023/12/20 03:36:49;;;;;;;0.80;0.50;;;5.90;1.00;;;;;;4994290;28;20461;-75
2023/12/20 03:39:17;;;;;;;0.80;0.67;;;5.90;1.00;;;;;;4994298;28;20445;-75
2023/12/20 03:41:45;;;;;;;0.60;0.20;;;6.00;1.00;;;;;;4994058;28;20834;-76
2023/12/20 03:44:13;;;;;;;2.60;0.70;;;5.90;1.00;;;;;;4993896;28;20828;-77
2023/12/20 03:46:40;;;;;;;0.97;0.73;;;5.90;1.00;;;;;;4988397;28;21023;-76
2023/12/20 03:49:10;;;;;;;0.70;0.50;;;5.90;1.00;;;;;;4992870;28;20507;-76
2023/12/20 03:51:38;;;;;;;1.23;1.07;;;5.80;1.00;;;;;;4994412;28;20520;-75
2023/12/20 03:54:06;;;;;;;1.10;0.97;;;5.80;1.00;;;;;;4993878;28;20449;-74
2023/12/20 03:56:34;;;;;;;3.47;0.50;;;5.80;1.00;;;;;;4994333;28;20479;-77
2023/12/20 03:59:02;;;;;;;0.90;0.67;;;5.90;1.00;;;;;;4985545;28;20877;-77
2023/12/20 04:01:29;;;;;;;0.90;0.63;;;5.90;1.00;;;;;;4974464;28;20484;-74
2023/12/20 04:03:58;;;;;;;2.00;1.03;;;;;;;;;;4974313;28;20487;-75
2023/12/20 04:06:28;;;;;;;1.10;0.90;;;5.90;1.00;;;;;;4986260;28;20464;-74
2023/12/20 04:08:56;;;;;;;0.60;0.40;;;5.90;1.00;;;;;;4993465;28;20441;-75
2023/12/20 04:11:23;;;;;;;0.50;0.20;;;5.90;1.00;;;;;;4990181;28;20958;-75
2023/12/20 04:13:51;;;;;;;1.63;1.23;;;5.90;1.00;;;;;;4974974;28;20968;-76
2023/12/20 04:16:19;;;;;;;1.80;1.13;;;5.90;1.00;;;;;;4977138;28;20522;-74
2023/12/20 04:18:47;;;;;;;0.63;0.50;;;5.80;1.00;;;;;;4994894;28;20445;-74
2023/12/20 04:21:15;;;;;;;2.33;1.00;;;5.80;1.00;;;;;;4999003;28;20445;-74
2023/12/20 04:23:45;;;;;;;4.47;1.40;;;;;;;;;;4998662;28;21013;-74
2023/12/20 04:26:13;;;;;;;2.40;1.50;;;;;;;;;;4990556;28;20485;-76
2023/12/20 04:28:48;;;;;;;1.47;0.80;;;;;;;;;;4985563;28;20533;-76
2023/12/20 04:31:23;;;;;;;1.33;1.23;;;;;;;;;;4974426;28;20883;-76
2023/12/20 04:33:52;;;;;;;0.57;0.30;;;;;;;;;;4982532;28;20454;-76
2023/12/20 04:36:25;;;;;;;0.57;0.40;;;;;;;;;;4993711;28;20556;-75
2023/12/20 04:38:54;;;;;;;0.50;0.10;;;;;;;;;;4986034;28;20484;-74
2023/12/20 04:41:23;;;;;;;0.50;0.13;;;;;;;;;;4993419;28;20853;-75
2023/12/20 04:43:51;;;;;;;0.60;0.37;;;6.10;1.00;;;;;;4985349;28;20504;-75
2023/12/20 04:46:18;;;;;;;4.27;1.73;;;6.10;1.00;;;;;;4992891;28;20465;-75
2023/12/20 04:48:47;;;;;;;0.90;0.50;;;6.00;1.00;;;;;;4993679;28;20828;-75
2023/12/20 04:51:14;;;;;;;1.40;0.87;;;6.00;1.00;;;;;;4993184;28;20540;-75
2023/12/20 04:53:42;;;;;;;0.60;0.53;;;6.00;1.00;;;;;;4985902;28;20443;-75
2023/12/20 04:56:12;;;;;;;0.70;0.30;;;;;;;;;;4993166;28;20912;-75
2023/12/20 04:58:40;;;;;;;0.60;0.40;;;6.10;1.00;;;;;;4993779;28;20521;-76
2023/12/20 05:01:09;;;;;;;2.60;0.87;;;6.10;1.00;;;;;;4992603;28;20445;-75
2023/12/20 05:03:37;;;;;;;0.50;0.10;;;6.10;1.00;;;;;;4992221;28;20477;-75
2023/12/20 05:06:05;;;;;;;1.43;0.70;;;6.20;1.00;;;;;;4991299;28;20445;-75
2023/12/20 05:08:33;;;;;;;0.50;0.20;;;6.20;1.00;;;;;;4992888;28;20484;-75
2023/12/20 05:11:01;;;;;;;0.50;0.10;;;6.30;1.00;;;;;;4992786;28;20483;-76
2023/12/20 05:13:31;;;;;;;1.27;0.47;;;;;;;;;;4995778;28;20897;-76
2023/12/20 05:16:17;;;;;;;0.97;0.77;;;;;;;;;;4994670;28;20479;-76
2023/12/20 05:18:52;;;;;;;0.70;0.20;;;;;;;;;;4995289;28;20463;-74
2023/12/20 05:21:21;;;;;;;2.33;2.20;;;;;;;;;;4994605;28;20484;-76
2023/12/20 05:23:49;;;;;;;0.70;0.53;;;6.40;1.00;;;;;;4992740;28;20480;-76
2023/12/20 05:26:17;;;;;;;0.60;0.10;;;;;;;;;;4990839;28;20555;-75
2023/12/20 05:28:46;;;;;;;0.83;0.70;;;6.40;1.00;;;;;;5000656;28;20532;-75
2023/12/20 05:31:14;;;;;;;1.33;0.63;;;;;;;;;;5009431;28;20469;-75
2023/12/20 05:33:42;;;;;;;0.73;0.63;;;6.40;1.00;;;;;;5002347;28;20451;-75
2023/12/20 05:36:13;;;;;;;0.87;0.80;;;6.30;1.00;;;;;;4990697;28;20446;-75
2023/12/20 05:38:41;;;;;;;0.70;0.70;;;6.30;1.00;;;;;;4998293;28;20483;-75
2023/12/20 05:41:09;;;;;;;1.63;1.53;;;6.30;1.00;;;;;;4998652;28;20543;-76
2023/12/20 05:43:37;;;;;;;0.60;0.50;;;6.30;1.00;;;;;;4998079;28;20587;-76
2023/12/20 05:46:06;;;;;;;1.37;0.53;;;6.30;1.00;;;;;;4997587;28;20444;-76
2023/12/20 05:48:34;;;;;;;3.37;3.07;;;;;;;;;;4997192;28;20446;-76
2023/12/20 05:51:02;;;;;;;0.50;0.10;;;6.40;1.00;;;;;;4996390;28;20970;-76
2023/12/20 05:53:30;;;;;;;0.50;0.10;;;6.50;1.00;;;;;;4996157;28;20928;-76
2023/12/20 05:55:58;;;;;;;0.50;0.37;;;6.50;99.90;;;;;;4995939;28;20816;-76
2023/12/20 05:58:25;;;;;;;0.50;0.10;;;6.50;99.90;;;;;;4996674;28;20483;-75
2023/12/20 06:00:53;;;;;;;0.50;0.20;;;6.60;99.90;;;;;;4997156;28;20540;-76
2023/12/20 06:03:23;;;;;;;0.60;0.33;;;6.60;99.90;;;;;;4996709;28;20449;-76
2023/12/20 06:05:51;;;;;;;0.50;0.10;;;;;;;;;;4996245;28;20473;-76
2023/12/20 06:08:27;;;;;;;0.50;0.20;;;6.60;99.90;;;;;;4996159;28;20608;-76
2023/12/20 06:10:54;;;;;;;0.50;0.10;;;6.60;99.90;;;;;;4996709;28;20528;-75
2023/12/20 06:13:22;;;;;;;0.50;0.20;;;6.70;99.90;;;;;;4996380;28;20453;-76
2023/12/20 06:15:50;;;;;;;0.50;0.20;;;;;;;;;;4996286;28;20449;-76
2023/12/20 06:18:18;;;;;;;0.50;0.10;;;6.80;99.90;;;;;;4996324;28;20449;-75
2023/12/20 06:20:48;;;;;;;0.50;0.10;;;6.80;99.90;;;;;;4996400;28;20484;-77
2023/12/20 06:23:16;;;;;;;0.50;0.10;;;;;;;;;;4996176;28;20523;-75
2023/12/20 06:25:44;;;;;;;0.50;0.20;;;6.80;99.90;;;;;;4996853;28;20485;-76
2023/12/20 06:28:14;;;;;;;0.60;0.40;;;6.80;99.90;;;;;;4983344;28;20507;-76
2023/12/20 06:30:42;;;;;;;0.50;0.20;;;6.70;99.90;;;;;;4977289;28;20451;-75
2023/12/20 06:33:11;;;;;;;0.73;0.50;;;;;;;;;;4985378;28;20473;-75
2023/12/20 06:35:39;;;;;;;0.67;0.40;;;6.60;99.90;;;;;;4998061;28;20518;-75
2023/12/20 06:38:09;;;;;;;9.83;1.33;;;6.60;99.90;;;;;;4998113;28;20468;-77
2023/12/20 06:40:37;;;;;;;0.50;0.10;;;6.50;99.90;;;;;;4997193;28;20957;-75
2023/12/20 06:43:06;;;;;;;0.50;0.27;;;6.50;99.90;;;;;;4996539;28;20455;-75
2023/12/20 06:45:47;;;;;;;0.60;0.20;;;6.50;99.90;;;;;;4995267;28;20538;-75
2023/12/20 06:48:16;;;;;;;1.57;0.97;;;;;;;;;;4995421;28;20516;-76
2023/12/20 06:50:43;;;;;;;0.50;0.10;;;6.50;99.90;;;;;;4995649;28;20990;-76
2023/12/20 06:53:13;;;;;;;0.90;0.67;;;;;;;;;;4995167;28;20531;-75
2023/12/20 06:55:41;;;;;;;0.50;0.20;;;;;;;;;;4995029;28;20535;-75
2023/12/20 06:58:08;;;;;;;1.13;0.57;;;6.40;99.90;;;;;;4996050;28;20505;-76
2023/12/20 07:00:37;;;;;;;0.50;0.40;;;;;;;;;;4994848;28;20445;-76
2023/12/20 07:03:05;;;;;;;0.50;0.20;;;6.30;99.90;;;;;;4994903;28;20480;-76
2023/12/20 07:05:34;;;;;;;0.70;0.33;;;;;;;;;;4994964;28;20567;-75
2023/12/20 07:08:01;;;;;;;0.50;0.20;;;6.30;99.90;;;;;;4994951;28;20504;-75
2023/12/20 07:10:31;;;;;;;0.50;0.10;;;6.30;99.90;;;;;;4994828;28;20480;-75
2023/12/20 07:12:59;;;;;;;0.50;0.10;;;6.40;99.90;;;;;;4995245;28;20509;-75
2023/12/20 07:15:29;;;;;;;0.50;0.20;;;6.40;99.90;;;;;;4995771;28;20445;-75
2023/12/20 07:17:57;;;;;;;0.60;0.47;;;6.40;99.90;;;;;;4995158;28;20491;-75
2023/12/20 07:20:25;;;;;;;0.50;0.20;;;6.40;99.90;;;;;;4994401;28;20443;-76
2023/12/20 07:22:53;;;;;;;0.50;0.20;;;6.30;99.90;;;;;;4995052;28;20452;-75
2023/12/20 07:25:21;;;;;;;1.07;0.50;;;6.40;99.90;;;;;;4985306;28;20485;-75
2023/12/20 07:27:50;;;;;;;0.93;0.50;;;6.30;99.90;;;;;;4987584;28;20850;-75
2023/12/20 07:30:18;;;;;;;0.50;0.20;;;6.30;99.90;;;;;;4995673;28;20866;-75
2023/12/20 07:32:47;;;;;;;0.50;0.20;;;6.30;99.90;;;;;;4994512;28;20456;-76
2023/12/20 07:35:16;;;;;;;0.50;0.20;;;6.30;99.90;;;;;;4994425;28;20517;-76
2023/12/20 07:37:44;;;;;;;0.50;0.10;;;6.20;99.90;;;;;;4994458;28;20514;-76
2023/12/20 07:40:12;;;;;;;0.90;0.70;;;6.20;99.90;;;;;;4994365;28;20456;-75
2023/12/20 07:42:40;;;;;;;0.50;0.20;;;6.10;99.90;;;;;;4994501;28;20531;-75
2023/12/20 07:45:11;;;;;;;0.57;0.37;;;6.20;99.90;;;;;;4993744;28;20550;-75
2023/12/20 07:47:40;;;;;;;0.93;0.60;;;6.10;99.90;;;;;;4994398;28;20853;-76
2023/12/20 07:50:08;;;;;;;1.37;0.50;;;6.10;99.90;;;;;;4994338;28;20449;-76
2023/12/20 07:52:36;;;;;;;0.70;0.50;;;6.10;99.90;;;;;;4994119;28;20507;-76
2023/12/20 07:55:05;;;;;;;1.57;0.93;;;6.10;99.90;;;;;;4994119;28;20882;-76
2023/12/20 07:57:33;;;;;;;0.60;0.40;;;6.00;99.90;;;;;;4993876;28;21049;-75
2023/12/20 08:00:00;;;;;;;4.23;1.23;;;6.00;99.90;;;;;;4993609;28;20962;-76
2023/12/20 08:02:30;;;;;;;0.60;0.20;;;5.90;99.90;;;;;;4994055;28;20536;-76
2023/12/20 08:04:58;;;;;;;4.10;0.30;;;5.90;99.90;;;;;;4994456;28;20800;-75
2023/12/20 08:07:26;;;;;;;1.13;1.03;;;;;;;;;;4993965;28;20481;-76
2023/12/20 08:09:54;;;;;;;1.60;0.47;;;6.00;99.90;;;;;;4994299;28;20458;-75
2023/12/20 08:12:22;;;;;;;1.73;0.97;;;6.00;99.90;;;;;;4994246;28;20465;-76
2023/12/20 08:14:51;;;;;;;0.50;0.20;;;;;;;;;;4994378;28;20990;-76
2023/12/20 08:17:19;;;;;;;0.50;0.20;;;6.00;99.90;;;;;;4993357;28;20936;-76
2023/12/20 08:19:48;;;;;;;1.77;0.60;;;6.00;99.90;;;;;;4994753;28;20450;-76
2023/12/20 08:22:16;;;;;;;0.60;0.20;;;6.00;99.90;;;;;;4994071;28;20461;-76
2023/12/20 08:24:44;;;;;;;0.60;0.30;;;6.00;99.90;;;;;;4993801;28;20519;-75
2023/12/20 08:27:12;;;;;;;0.77;0.77;;;6.10;99.90;;;;;;4993722;28;20491;-76
2023/12/20 08:29:40;;;;;;;0.60;0.30;;;;;;;;;;5005289;28;20457;-75
2023/12/20 08:32:08;;;;;;;1.90;1.60;;;6.00;99.90;;;;;;5008835;28;20437;-76
2023/12/20 08:34:36;;;;;;;0.83;0.73;;;;;;;;;;5004379;28;20445;-76
2023/12/20 08:37:06;;;;;;;1.57;0.73;;;6.00;99.90;;;;;;4998066;28;21014;-76
2023/12/20 08:39:34;;;;;;;1.33;1.17;;;6.00;99.90;;;;;;4993674;28;20455;-73
2023/12/20 08:42:02;;;;;;;2.13;1.17;;;6.00;99.90;;;;;;4992975;28;20540;-75
2023/12/20 08:44:30;;;;;;;1.73;1.63;;;6.00;99.90;;;;;;4994179;28;20441;-76
2023/12/20 08:46:58;;;;;;;0.70;0.60;;;;;;;;;;4993860;28;20524;-75
2023/12/20 08:49:26;;;;;;;0.83;0.20;;;6.10;99.90;;;;;;4996319;28;20535;-74
2023/12/20 08:51:54;;;;;;;1.23;0.60;;;6.10;99.90;;;;;;4995791;28;20456;-75
2023/12/20 08:54:23;;;;;;;2.13;0.87;;;6.10;99.90;;;;;;4996102;28;20453;-76
2023/12/20 08:56:51;;;;;;;1.00;0.70;;;6.10;99.90;;;;;;4997672;28;20480;-74
2023/12/20 08:59:19;;;;;;;0.90;0.50;;;6.10;99.90;;;;;;4998473;28;20979;-76
2023/12/20 09:01:48;;;;;;;2.20;0.83;;;;;;;;;;4999300;28;20499;-77
2023/12/20 09:04:16;;;;;;;1.70;0.83;;;;;;;;;;4994439;28;20484;-76
2023/12/20 09:06:44;;;;;;;0.60;0.40;;;6.10;99.90;;;;;;4992111;28;20511;-75
2023/12/20 09:09:13;;;;;;;0.50;0.20;;;6.10;99.90;;;;;;4993699;28;20449;-76
2023/12/20 09:11:46;;;;;;;1.20;0.60;;;6.10;99.90;;;;;;4998147;28;20458;-76
2023/12/20 09:14:14;;;;;;;0.80;0.57;;;;;;;;;;4996009;28;20519;-77
2023/12/20 09:16:42;;;;;;;4.00;1.33;;;6.20;99.90;;;;;;4985500;28;20549;-76
2023/12/20 09:19:10;;;;;;;0.50;0.13;;;;;;;;;;4977423;28;20481;-76
2023/12/20 09:21:38;;;;;;;1.80;0.70;;;6.20;99.90;;;;;;4978271;28;20449;-75
2023/12/20 09:24:06;;;;;;;2.53;1.20;;;6.20;99.90;;;;;;4996293;28;20550;-76
2023/12/20 09:26:34;;;;;;;0.70;0.40;;;;;;;;;;4996113;28;20492;-75
2023/12/20 09:29:04;;;;;;;0.70;0.30;;;6.30;99.90;;;;;;4992507;28;20449;-76
2023/12/20 09:31:31;;;;;;;1.00;0.77;;;6.20;99.90;;;;;;4988422;28;20582;-75
2023/12/20 09:34:00;;;;;;;1.33;0.40;;;;;;;;;;4995065;28;20845;-75
2023/12/20 09:36:28;;;;;;;3.20;2.00;;;6.30;99.90;;;;;;4985699;28;20465;-75
2023/12/20 09:38:56;;;;;;;0.70;0.30;;;6.40;99.90;;;;;;4984309;28;20461;-75
2023/12/20 09:41:26;;;;;;;0.50;0.10;;;6.50;99.90;;;;;;4987523;28;20460;-75
2023/12/20 09:43:58;;;;;;;0.50;0.20;;;6.50;99.90;;;;;;4995990;28;20505;-75
2023/12/20 09:46:29;;;;;;;0.60;0.20;;;6.50;99.90;;;;;;4993207;28;20575;-75
2023/12/20 09:48:59;;;;;;;0.50;0.30;;;6.50;99.90;;;;;;4990115;28;20507;-74
2023/12/20 09:51:29;;;;;;;0.50;0.20;;;6.50;99.90;;;;;;4985499;28;20452;-75
2023/12/20 09:53:58;;;;;;;17.40;2.63;;;6.50;99.90;;;;;;4987249;28;20959;-75
2023/12/20 09:56:27;;;;;;;0.60;0.23;;;6.60;99.90;;;;;;4991989;28;20469;-75
2023/12/20 09:58:54;;;;;;;2.00;1.90;;;6.60;99.90;;;;;;4996364;28;20838;-75
2023/12/20 10:01:23;;;;;;;1.23;0.77;;;6.60;99.90;;;;;;4989603;28;20472;-75
2023/12/20 10:03:55;;;;;;;0.50;0.30;;;6.70;99.90;;;;;;4990440;28;20940;-76
2023/12/20 10:06:23;;;;;;;1.00;0.63;;;6.70;99.90;;;;;;5000000;28;20491;-76
2023/12/20 10:08:51;;;;;;;1.27;1.07;;;6.70;99.90;;;;;;4999339;28;21006;-75
2023/12/20 10:11:20;;;;;;;1.27;0.50;;;;;;;;;;4981542;28;20450;-78
2023/12/20 10:13:49;;;;;;;0.90;0.73;;;6.90;99.90;;;;;;4991618;28;20442;-75
2023/12/20 10:16:17;;;;;;;0.50;0.10;;;6.90;99.90;;;;;;5000005;28;20508;-75
2023/12/20 10:18:46;;;;;;;0.50;0.20;;;6.90;99.90;;;;;;4998912;28;20535;-77
2023/12/20 10:21:15;;;;;;;0.50;0.20;;;7.00;99.90;;;;;;4996764;28;20476;-76
2023/12/20 10:23:44;;;;;;;0.70;0.50;;;;;;;;;;4992078;28;20445;-76
2023/12/20 10:26:20;;;;;;;0.50;0.10;;;7.00;99.90;;;;;;4990752;28;20512;-75
2023/12/20 10:28:51;;;;;;;0.50;0.20;;;7.00;99.90;;;;;;4988301;28;20437;-76
2023/12/20 10:31:29;;;;;;;0.50;0.10;;;7.00;99.90;;;;;;4986692;28;20451;-76
2023/12/20 10:33:58;;;;;;;0.70;0.70;;;7.10;99.90;;;;;;4991497;28;20496;-76
2023/12/20 10:36:29;;;;;;;0.70;0.43;;;7.10;99.90;;;;;;4986733;28;21010;-75
2023/12/20 10:38:58;;;;;;;0.50;0.30;;;7.20;99.90;;;;;;4993381;28;20880;-76
2023/12/20 10:41:28;;;;;;;0.60;0.40;;;7.30;99.90;;;;;;4984921;28;20440;-76
2023/12/20 10:43:59;;;;;;;1.90;0.40;;;7.30;99.90;;;;;;4988359;28;20452;-75
2023/12/20 10:46:29;;;;;;;0.50;0.10;;;7.40;99.90;;;;;;4995089;28;20535;-76
2023/12/20 10:48:58;;;;;;;0.50;0.10;;;;;;;;;;4995763;28;20451;-75
2023/12/20 10:51:27;;;;;;;0.93;0.87;;;;;;;;;;4995336;28;20810;-76
2023/12/20 10:53:57;;;;;;;0.60;0.30;;;7.60;99.90;;;;;;4987619;28;20453;-77
2023/12/20 10:56:25;;;;;;;0.50;0.10;;;7.70;99.90;;;;;;4987008;28;20525;-75
2023/12/20 10:58:53;;;;;;;1.10;0.50;;;7.80;99.90;;;;;;4994765;28;20445;-77
2023/12/20 11:01:21;;;;;;;0.50;0.20;;;7.80;99.90;;;;;;4994451;28;20575;-76
2023/12/20 11:03:50;;;;;;;4.37;1.50;;;7.80;99.90;;;;;;4996700;28;20441;-75
2023/12/20 11:06:31;;;;;;;0.97;0.60;;;7.90;99.90;;;;;;4994490;28;20891;-76
2023/12/20 11:09:12;;;;;;;0.50;0.10;;;7.90;99.90;;;;;;4986903;28;20841;-75
2023/12/20 11:11:44;;;;;;;0.50;0.10;;;;;;;;;;4994821;28;20444;-76
2023/12/20 11:14:17;;;;;;;8.40;0.77;;;7.90;99.90;;;;;;4993738;28;20874;-77
2023/12/20 11:16:46;;;;;;;4.10;0.70;;;8.00;99.90;;;;;;4990470;28;20501;-75
2023/12/20 11:19:22;;;;;;;0.60;0.43;;;8.00;99.90;;;;;;4992896;28;20456;-78
2023/12/20 11:21:51;;;;;;;0.50;0.17;;;8.10;99.90;;;;;;4992516;28;20693;-77
2023/12/20 11:24:25;;;;;;;0.50;0.20;;;8.20;99.90;;;;;;4994666;28;20450;-76
2023/12/20 11:26:57;;;;;;;0.50;0.10;;;8.20;99.90;;;;;;4982336;28;20487;-76
2023/12/20 11:29:31;;;;;;;2.10;0.70;;;;;;;;;;4984550;28;20535;-76
2023/12/20 11:32:02;;;;;;;0.50;0.10;;;8.30;99.90;;;;;;4999465;28;20449;-77
2023/12/20 11:34:32;;;;;;;0.77;0.27;;;8.30;99.90;;;;;;5009697;28;20484;-77
2023/12/20 11:37:03;;;;;;;0.50;0.20;;;8.20;99.90;;;;;;5001620;28;20461;-77
2023/12/20 11:39:32;;;;;;;0.50;0.10;;;8.30;99.90;;;;;;5006878;28;20433;-77
2023/12/20 11:42:06;;;;;;;1.33;0.83;;;8.30;99.90;;;;;;5002969;28;20461;-76
2023/12/20 11:44:34;;;;;;;7.73;1.10;;;8.20;99.90;;;;;;4988970;28;20444;-76
2023/12/20 11:47:02;;;;;;;0.50;0.10;;;8.20;99.90;;;;;;4986933;28;20560;-76
2023/12/20 11:49:30;;;;;;;0.50;0.10;;;8.30;99.90;;;;;;4994253;28;20768;-76
2023/12/20 11:52:00;;;;;;;0.60;0.20;;;8.30;99.90;;;;;;4994762;28;20450;-77
2023/12/20 11:54:32;;;;;;;0.50;0.10;;;8.30;99.90;;;;;;4984459;28;20453;-76
2023/12/20 11:57:01;;;;;;;0.70;0.40;;;8.30;99.90;;;;;;4992804;28;20470;-76
2023/12/20 11:59:29;;;;;;;0.83;0.30;;;;;;;;;;4994400;28;20932;-76
2023/12/20 12:02:00;;;;;;;1.70;1.60;;;;;;;;;;4993121;28;20875;-76
2023/12/20 12:04:29;;;;;;;0.60;0.30;;;;;;;;;;4983894;28;20454;-76
2023/12/20 12:06:58;;;;;;;1.37;1.27;;;8.30;99.90;;;;;;4985091;28;20978;-75
2023/12/20 12:09:26;;;;;;;0.97;0.40;;;8.20;99.90;;;;;;4993102;28;20497;-75
2023/12/20 12:11:56;;;;;;;3.40;0.30;;;8.30;99.90;;;;;;4989180;28;20474;-74
2023/12/20 12:14:25;;;;;;;2.70;0.87;;;8.20;99.90;;;;;;4981510;28;20473;-75
2023/12/20 12:16:53;;;;;;;0.50;0.10;;;8.30;99.90;;;;;;4992861;28;20462;-75
2023/12/20 12:19:22;;;;;;;0.50;0.10;;;8.40;99.90;;;;;;4992471;28;20453;-75
2023/12/20 12:21:50;;;;;;;0.90;0.47;;;8.30;99.90;;;;;;4992689;28;20787;-77
2023/12/20 12:24:22;;;;;;;0.60;0.20;;;8.40;99.90;;;;;;4973207;28;20454;-75
2023/12/20 12:26:54;;;;;;;5.00;0.50;;;8.40;99.90;;;;;;4989876;28;20567;-76
2023/12/20 12:29:24;;;;;;;0.50;0.20;;;8.50;99.90;;;;;;4992421;28;20520;-75
2023/12/20 12:31:52;;;;;;;1.53;0.43;;;8.50;99.90;;;;;;4984161;28;20594;-76
2023/12/20 12:34:20;;;;;;;4.50;1.27;;;8.50;99.90;;;;;;4993040;28;20440;-76
2023/12/20 12:36:49;;;;;;;0.50;0.20;;;8.50;99.90;;;;;;4991899;28;20467;-76
2023/12/20 12:39:19;;;;;;;0.50;0.20;;;8.60;99.90;;;;;;4985172;28;20798;-76
2023/12/20 12:41:47;;;;;;;0.70;0.40;;;;;;;;;;4982820;28;20466;-75
2023/12/20 12:44:15;;;;;;;1.27;0.70;;;8.50;99.90;;;;;;4989292;28;20505;-76
2023/12/20 12:46:49;;;;;;;1.53;1.03;;;8.40;99.90;;;;;;4986785;28;20466;-75
2023/12/20 12:49:17;;;;;;;1.90;0.67;;;8.40;99.90;;;;;;4985277;28;20481;-75
2023/12/20 12:51:45;;;;;;;0.50;0.10;;;8.50;99.90;;;;;;4984759;28;20446;-75
2023/12/20 12:54:16;;;;;;;0.50;0.20;;;8.50;99.90;;;;;;4992476;28;20520;-75
2023/12/20 12:56:44;;;;;;;0.70;0.43;;;8.50;99.90;;;;;;4989838;28;20892;-76
2023/12/20 12:59:12;;;;;;;0.70;0.47;;;8.50;99.90;;;;;;4978878;28;20452;-76
2023/12/20 13:01:40;;;;;;;0.70;0.50;;;;;;;;;;4991856;28;20442;-77
2023/12/20 13:04:10;;;;;;;0.50;0.10;;;8.50;99.90;;;;;;4992040;28;20503;-76
2023/12/20 13:06:41;;;;;;;0.50;0.20;;;8.40;99.90;;;;;;4992965;28;20523;-75
2023/12/20 13:09:10;;;;;;;0.50;0.10;;;8.50;99.90;;;;;;4986954;28;20511;-75
2023/12/20 13:11:38;;;;;;;1.13;0.73;;;8.50;99.90;;;;;;4991645;28;20992;-76
2023/12/20 13:14:10;;;;;;;3.23;0.83;;;8.50;99.90;;;;;;4992833;28;20438;-76
2023/12/20 13:16:39;;;;;;;2.50;1.70;;;8.60;99.90;;;;;;4993234;28;20496;-76
2023/12/20 13:19:07;;;;;;;1.00;0.37;;;8.50;99.90;;;;;;4986857;28;20447;-75
2023/12/20 13:21:38;;;;;;;0.60;0.40;;;8.50;99.90;;;;;;4980063;28;20842;-74
2023/12/20 13:24:06;;;;;;;0.70;0.40;;;8.50;99.90;;;;;;4987081;28;20480;-78
2023/12/20 13:26:34;;;;;;;0.80;0.17;;;8.50;99.90;;;;;;4984751;28;20506;-78